createdAt,value
2022-09-02T00:01:57.442Z,101530.24
2022-09-02T00:04:27.345Z,101528.64
2022-09-02T00:06:55.677Z,101527.30
2022-09-02T00:09:26.094Z,101515.92
2022-09-02T00:11:55.553Z,101519.32
2022-09-02T00:14:27.971Z,101517.16
2022-09-02T00:16:56.319Z,101514.02
2022-09-02T00:19:26.740Z,101511.37
2022-09-02T00:21:56.846Z,101506.37
2022-09-02T00:24:26.164Z,101504.48
2022-09-02T00:26:56.631Z,101505.52
2022-09-02T00:29:25.780Z,101501.27
2022-09-02T00:31:54.060Z,101495.97
2022-09-02T00:34:22.046Z,101507.02
2022-09-02T00:36:49.717Z,101499.41
2022-09-02T00:39:18.290Z,101512.55
2022-09-02T00:41:46.307Z,101504.90
2022-09-02T00:44:17.300Z,101508.82
2022-09-02T00:46:45.779Z,101509.31
2022-09-02T00:49:18.912Z,101503.52
2022-09-02T00:51:56.748Z,101506.11
2022-09-02T00:54:27.187Z,101506.63
2022-09-02T00:56:55.985Z,101511.60
2022-09-02T00:59:47.712Z,101506.86
2022-09-02T01:02:16.306Z,101506.56
2022-09-02T01:04:44.312Z,101509.41
2022-09-02T01:07:12.082Z,101511.99
2022-09-02T01:09:40.353Z,101508.27
2022-09-02T01:12:09.570Z,101505.91
2022-09-02T01:14:37.234Z,101499.34
2022-09-02T01:17:05.239Z,101510.59
2022-09-02T01:19:37.726Z,101510.10
2022-09-02T01:22:17.114Z,101499.57
2022-09-02T01:24:44.795Z,101505.06
2022-09-02T01:27:17.393Z,101515.07
2022-09-02T01:29:45.869Z,101508.79
2022-09-02T01:32:13.722Z,101506.17
2022-09-02T01:34:41.437Z,101501.43
2022-09-02T01:37:09.798Z,101509.31
2022-09-02T01:39:37.533Z,101506.89
2022-09-02T01:42:05.483Z,101497.38
2022-09-02T01:44:35.903Z,101503.88
2022-09-02T01:47:03.690Z,101499.70
2022-09-02T01:49:32.530Z,101497.84
2022-09-02T01:52:04.747Z,101491.03
2022-09-02T01:54:32.469Z,101492.08
2022-09-02T01:57:00.220Z,101489.70
2022-09-02T01:59:27.943Z,101487.57
2022-09-02T02:01:55.755Z,101483.12
2022-09-02T02:04:25.948Z,101483.91
2022-09-02T02:06:53.731Z,101480.77
2022-09-02T02:09:23.382Z,101478.94
2022-09-02T02:11:51.104Z,101484.43
2022-09-02T02:14:19.161Z,101486.49
2022-09-02T02:16:48.071Z,101485.34
2022-09-02T02:19:16.024Z,101495.25
2022-09-02T02:21:44.014Z,101489.86
2022-09-02T02:24:11.788Z,101485.34
2022-09-02T02:26:39.530Z,101482.37
2022-09-02T02:29:07.490Z,101490.51
2022-09-02T02:31:35.359Z,101488.05
2022-09-02T02:34:03.180Z,101482.95
2022-09-02T02:36:31.050Z,101476.84
2022-09-02T02:38:59.305Z,101473.38
2022-09-02T02:41:27.694Z,101471.28
2022-09-02T02:43:55.591Z,101480.21
2022-09-02T02:46:23.330Z,101477.04
2022-09-02T02:48:51.059Z,101475.77
2022-09-02T02:51:18.774Z,101471.28
2022-09-02T02:53:46.499Z,101473.67
2022-09-02T02:56:14.255Z,101474.98
2022-09-02T02:58:42.085Z,101475.70
2022-09-02T03:01:12.466Z,101473.54
2022-09-02T03:03:40.217Z,101468.34
2022-09-02T03:06:08.225Z,101470.73
2022-09-02T03:08:36.863Z,101477.56
2022-09-02T03:11:08.221Z,101478.64
2022-09-02T03:13:36.531Z,101476.48
2022-09-02T03:16:07.393Z,101475.53
2022-09-02T03:18:35.789Z,101478.64
2022-09-02T03:21:08.604Z,101480.15
2022-09-02T03:23:37.089Z,101474.81
2022-09-02T03:26:09.934Z,101481.81
2022-09-02T03:28:37.731Z,101476.25
2022-09-02T03:31:07.308Z,101478.05
2022-09-02T03:33:35.311Z,101471.48
2022-09-02T03:36:03.116Z,101477.76
2022-09-02T03:38:30.818Z,101482.43
2022-09-02T03:40:58.446Z,101477.89
2022-09-02T03:43:26.169Z,101480.18
2022-09-02T03:45:53.924Z,101489.40
2022-09-02T03:48:24.342Z,101478.90
2022-09-02T03:50:52.083Z,101482.76
2022-09-02T03:53:20.554Z,101481.09
2022-09-02T03:55:50.577Z,101489.73
2022-09-02T03:58:18.545Z,101488.41
2022-09-02T04:00:51.485Z,101487.14
2022-09-02T04:03:19.733Z,101488.41
2022-09-02T04:05:49.290Z,101483.77
2022-09-02T04:08:17.042Z,101483.58
2022-09-02T04:10:44.869Z,101483.84
2022-09-02T04:13:13.153Z,101485.70
2022-09-02T04:15:45.990Z,101489.40
2022-09-02T04:19:09.689Z,101477.17
2022-09-02T04:21:39.970Z,101481.65
2022-09-02T04:24:10.471Z,101472.69
2022-09-02T04:26:44.892Z,101482.83
2022-09-02T04:29:13.325Z,101483.84
2022-09-02T04:31:40.999Z,101476.22
2022-09-02T04:34:08.698Z,101482.47
2022-09-02T04:36:36.819Z,101480.90
2022-09-02T04:39:05.389Z,101477.73
2022-09-02T04:41:33.149Z,101485.28
2022-09-02T04:44:01.384Z,101489.07
2022-09-02T04:46:33.976Z,101492.84
2022-09-02T04:49:03.773Z,101483.52
2022-09-02T04:51:32.404Z,101492.05
2022-09-02T04:54:00.144Z,101493.81
2022-09-02T04:56:30.165Z,101492.24
2022-09-02T04:58:57.910Z,101497.12
2022-09-02T05:01:28.588Z,101494.73
2022-09-02T05:03:56.636Z,101497.12
2022-09-02T05:06:29.817Z,101492.05
2022-09-02T05:09:00.700Z,101494.34
2022-09-02T05:11:30.539Z,101495.61
2022-09-02T05:14:00.616Z,101497.41
2022-09-02T05:16:32.040Z,101496.59
2022-09-02T05:19:01.378Z,101497.41
2022-09-02T05:21:29.059Z,101495.32
2022-09-02T05:23:56.827Z,101493.03
2022-09-02T05:26:25.446Z,101498.59
2022-09-02T05:28:53.456Z,101494.44
2022-09-02T05:31:22.540Z,101498.69
2022-09-02T05:33:50.636Z,101498.30
2022-09-02T05:36:21.520Z,101501.76
2022-09-02T05:38:50.254Z,101504.57
2022-09-02T05:41:26.009Z,101494.44
2022-09-02T05:43:56.320Z,101496.59
2022-09-02T05:46:25.557Z,101499.05
2022-09-02T05:49:13.381Z,101497.54
2022-09-02T05:51:52.429Z,101504.90
2022-09-02T05:54:26.652Z,101501.50
2022-09-02T05:56:57.359Z,101503.88
2022-09-02T05:59:28.126Z,101512.81
2022-09-02T06:01:56.760Z,101502.38
2022-09-02T06:04:25.105Z,101499.21
2022-09-02T06:06:53.431Z,101496.89
2022-09-02T06:09:23.761Z,101500.88
2022-09-02T06:11:52.762Z,101505.13
2022-09-02T06:14:26.172Z,101494.92
2022-09-02T06:16:56.048Z,101498.36
2022-09-02T06:19:26.352Z,101492.67
2022-09-02T06:21:55.932Z,101502.41
2022-09-02T06:24:24.596Z,101498.03
2022-09-02T06:26:54.560Z,101495.16
2022-09-02T06:29:25.067Z,101492.84
2022-09-02T06:31:53.124Z,101496.59
2022-09-02T06:34:22.965Z,101490.09
2022-09-02T06:36:51.709Z,101497.51
2022-09-02T06:39:21.804Z,101490.09
2022-09-02T06:41:50.124Z,101485.73
2022-09-02T06:44:19.938Z,101484.27
2022-09-02T06:46:54.388Z,101487.41
2022-09-02T06:49:23.156Z,101495.05
2022-09-02T06:51:52.925Z,101490.61
2022-09-02T06:54:23.000Z,101497.48
2022-09-02T06:56:52.215Z,101493.88
2022-09-02T06:59:21.811Z,101489.43
2022-09-02T07:01:50.631Z,101488.19
2022-09-02T07:04:37.795Z,101480.87
2022-09-02T07:07:08.283Z,101482.50
2022-09-02T07:09:36.503Z,101475.99
2022-09-02T07:12:05.757Z,101483.64
2022-09-02T07:14:39.530Z,101484.69
2022-09-02T07:17:07.576Z,101487.89
2022-09-02T07:19:35.483Z,101486.33
2022-09-02T07:22:08.251Z,101486.33
2022-09-02T07:24:36.331Z,101485.28
2022-09-02T07:27:04.649Z,101488.22
2022-09-02T07:29:33.154Z,101494.80
2022-09-02T07:32:00.927Z,101489.89
2022-09-02T07:34:28.762Z,101482.86
2022-09-02T07:37:01.768Z,101488.13
2022-09-02T07:39:31.169Z,101489.92
2022-09-02T07:41:59.320Z,101482.63
2022-09-02T07:44:28.344Z,101485.77
2022-09-02T07:46:56.216Z,101486.62
2022-09-02T07:49:25.307Z,101485.64
2022-09-02T07:51:53.523Z,101484.13
2022-09-02T07:54:24.334Z,101488.13
2022-09-02T07:56:52.874Z,101494.50
2022-09-02T07:59:22.874Z,101490.64
2022-09-02T08:01:50.782Z,101485.93
2022-09-02T08:04:21.207Z,101487.83
2022-09-02T08:06:48.960Z,101488.65
2022-09-02T08:09:16.702Z,101479.98
2022-09-02T08:11:47.625Z,101478.18
2022-09-02T08:14:19.256Z,101475.86
2022-09-02T08:16:48.142Z,101476.45
2022-09-02T08:19:16.482Z,101477.82
2022-09-02T08:21:44.212Z,101484.20
2022-09-02T08:24:12.152Z,101484.20
2022-09-02T08:26:39.947Z,101475.77
2022-09-02T08:29:09.235Z,101476.55
2022-09-02T08:31:40.945Z,101472.03
2022-09-02T08:34:08.774Z,101471.51
2022-09-02T08:36:36.505Z,101469.91
2022-09-02T08:39:06.435Z,101468.90
2022-09-02T08:41:50.306Z,101471.25
2022-09-02T08:44:23.140Z,101467.82
2022-09-02T08:46:55.037Z,101464.68
2022-09-02T08:49:32.739Z,101466.77
2022-09-02T08:52:04.737Z,101456.24
2022-09-02T08:54:38.452Z,101457.81
2022-09-02T08:57:06.433Z,101455.16
2022-09-02T08:59:34.321Z,101458.07
2022-09-02T09:02:25.313Z,101460.69
2022-09-02T09:05:31.807Z,101460.43
2022-09-02T09:08:21.476Z,101456.73
2022-09-02T09:10:55.919Z,101460.91
2022-09-02T09:13:29.486Z,101453.56
2022-09-02T09:16:09.209Z,101457.26
2022-09-02T09:18:42.952Z,101460.39
2022-09-02T09:21:12.155Z,101459.34
2022-09-02T09:23:41.767Z,101454.09
2022-09-02T09:26:14.725Z,101457.48
2022-09-02T09:28:45.059Z,101453.76
2022-09-02T09:31:16.060Z,101454.51
2022-09-02T09:34:16.028Z,101446.59
2022-09-02T09:36:47.089Z,101449.70
2022-09-02T09:39:19.025Z,101441.52
2022-09-02T09:41:48.555Z,101438.59
2022-09-02T09:44:39.693Z,101438.84
2022-09-02T09:47:13.635Z,101438.84
2022-09-02T09:49:45.158Z,101438.55
2022-09-02T09:52:12.916Z,101441.33
2022-09-02T09:54:40.586Z,101438.13
2022-09-02T09:57:18.329Z,101437.02
2022-09-02T09:59:51.057Z,101439.01
2022-09-02T10:02:26.709Z,101430.77
2022-09-02T10:05:10.417Z,101426.19
2022-09-02T10:07:45.228Z,101425.83
2022-09-02T10:10:18.864Z,101423.64
2022-09-02T10:12:48.854Z,101420.92
2022-09-02T10:15:21.863Z,101423.48
2022-09-02T10:18:08.064Z,101416.05
2022-09-02T10:24:15.462Z,101410.33
2022-09-02T10:26:53.539Z,101414.48
2022-09-02T10:29:27.251Z,101409.84
2022-09-02T10:32:14.088Z,101403.43
2022-09-02T10:34:56.915Z,101414.45
2022-09-02T10:37:26.339Z,101405.33
2022-09-02T10:40:10.920Z,101397.09
2022-09-02T10:43:20.473Z,101403.63
2022-09-02T10:45:52.062Z,101399.84
2022-09-02T10:48:34.815Z,101399.51
2022-09-02T10:51:06.894Z,101394.96
2022-09-02T10:53:45.409Z,101387.57
2022-09-02T10:56:22.750Z,101384.37
2022-09-02T10:59:09.067Z,101387.02
2022-09-02T11:01:40.759Z,101385.12
2022-09-02T11:04:38.716Z,101381.65
2022-09-02T11:07:11.888Z,101381.45
2022-09-02T11:09:49.080Z,101385.84
2022-09-02T11:12:32.202Z,101379.13
2022-09-02T11:15:11.245Z,101368.73
2022-09-02T11:18:05.030Z,101369.78
2022-09-02T11:20:51.954Z,101366.25
2022-09-02T11:23:35.402Z,101369.39
2022-09-02T11:26:17.384Z,101367.49
2022-09-02T11:29:05.479Z,101364.26
2022-09-02T11:31:44.508Z,101366.05
2022-09-02T11:34:36.852Z,101361.02
2022-09-02T11:37:11.383Z,101364.95
2022-09-02T11:39:59.194Z,101365.17
2022-09-02T11:43:03.689Z,101358.70
2022-09-02T11:46:16.758Z,101362.30
2022-09-02T11:49:24.373Z,101364.88
2022-09-02T11:52:10.692Z,101356.27
2022-09-02T11:54:45.558Z,101361.73
2022-09-02T11:57:21.855Z,101358.50
2022-09-02T11:59:52.485Z,101360.76
2022-09-02T12:02:38.140Z,101359.64
2022-09-02T12:05:33.486Z,101360.33
2022-09-02T12:08:13.349Z,101350.91
2022-09-02T12:10:42.025Z,101345.98
2022-09-02T12:13:10.529Z,101344.90
2022-09-02T12:15:39.650Z,101345.13
2022-09-02T12:18:13.273Z,101338.16
2022-09-02T12:20:42.454Z,101335.67
2022-09-02T12:23:31.937Z,101333.78
2022-09-02T12:26:03.938Z,101337.51
2022-09-02T12:28:32.270Z,101329.20
2022-09-02T12:31:02.813Z,101327.27
2022-09-02T12:33:38.643Z,101325.37
2022-09-02T12:36:09.060Z,101324.03
2022-09-02T12:38:42.290Z,101321.55
2022-09-02T12:41:23.139Z,101309.55
2022-09-02T12:44:04.580Z,101308.21
2022-09-02T12:46:55.089Z,101307.65
2022-09-02T12:49:37.149Z,101311.80
2022-09-02T12:52:13.193Z,101308.50
2022-09-02T12:54:40.755Z,101297.65
2022-09-02T12:57:10.027Z,101293.36
2022-09-02T12:59:41.293Z,101292.02
2022-09-02T13:02:39.854Z,101290.68
2022-09-02T13:06:01.836Z,101286.76
2022-09-02T13:09:15.171Z,101276.55
2022-09-02T13:12:19.903Z,101273.77
2022-09-02T13:15:03.417Z,101265.37
2022-09-02T13:18:21.949Z,101265.73
2022-09-02T13:21:30.686Z,101254.97
2022-09-02T13:24:19.181Z,101250.30
2022-09-02T13:27:33.410Z,101242.88
2022-09-02T13:30:15.064Z,101244.80
2022-09-02T13:32:43.540Z,101242.45
2022-09-02T13:35:24.033Z,101234.50
2022-09-02T13:38:00.869Z,101238.75
2022-09-02T13:40:35.072Z,101237.74
2022-09-02T13:43:05.888Z,101223.71
2022-09-02T13:45:37.384Z,101227.63
2022-09-02T13:48:29.647Z,101232.12
2022-09-02T13:51:00.483Z,101232.34
2022-09-02T13:53:45.975Z,101223.58
2022-09-02T13:56:28.353Z,101228.09
2022-09-02T13:58:59.550Z,101222.70
2022-09-02T14:01:36.768Z,101217.66
2022-09-02T14:04:10.470Z,101211.25
2022-09-02T14:06:48.675Z,101205.63
2022-09-02T14:09:26.901Z,101223.38
2022-09-02T14:11:55.680Z,101211.71
2022-09-02T14:14:25.370Z,101216.38
2022-09-02T14:16:53.829Z,101207.30
2022-09-02T14:19:21.418Z,101204.61
2022-09-02T14:21:50.774Z,101199.55
2022-09-02T14:24:24.387Z,101198.76
2022-09-02T14:26:58.060Z,101202.69
2022-09-02T14:29:27.540Z,101197.62
2022-09-02T14:32:26.103Z,101200.76
2022-09-02T14:35:22.405Z,101182.70
2022-09-02T14:37:57.016Z,101179.23
2022-09-02T14:40:37.315Z,101177.90
2022-09-02T14:43:05.906Z,101172.83
2022-09-02T14:45:35.725Z,101181.20
2022-09-02T14:48:17.706Z,101179.11
2022-09-02T14:50:45.446Z,101180.88
2022-09-02T14:53:20.887Z,101172.34
2022-09-02T14:55:54.284Z,101163.38
2022-09-02T14:58:27.085Z,101162.01
2022-09-02T15:01:01.136Z,101165.14
2022-09-02T15:03:32.873Z,101163.21
2022-09-02T15:06:00.542Z,101164.23
2022-09-02T15:08:28.353Z,101164.23
2022-09-02T15:11:00.939Z,101173.38
2022-09-02T15:13:35.105Z,101174.95
2022-09-02T15:16:03.624Z,101174.82
2022-09-02T15:18:31.579Z,101176.23
2022-09-02T15:20:59.464Z,101179.80
2022-09-02T15:23:29.392Z,101182.25
2022-09-02T15:25:58.254Z,101182.28
2022-09-02T15:28:25.954Z,101186.04
2022-09-02T15:31:01.036Z,101183.55
2022-09-02T15:33:29.653Z,101178.12
2022-09-02T15:36:07.857Z,101174.62
2022-09-02T15:38:36.174Z,101177.93
2022-09-02T15:41:16.481Z,101179.27
2022-09-02T15:43:45.183Z,101180.41
2022-09-02T15:46:27.426Z,101180.77
2022-09-02T15:49:00.340Z,101170.84
2022-09-02T15:51:29.990Z,101183.66
2022-09-02T15:53:59.796Z,101184.02
2022-09-02T15:56:29.198Z,101184.93
2022-09-02T15:58:59.131Z,101182.37
2022-09-02T16:01:31.526Z,101180.02
2022-09-02T16:04:00.068Z,101174.76
2022-09-02T16:06:27.818Z,101174.53
2022-09-02T16:08:56.616Z,101170.24
2022-09-02T16:11:24.390Z,101171.39
2022-09-02T16:13:52.342Z,101174.89
2022-09-02T16:16:20.791Z,101167.27
2022-09-02T16:18:53.833Z,101166.52
2022-09-02T16:21:23.610Z,101163.58
2022-09-02T16:23:52.762Z,101162.04
2022-09-02T16:26:28.773Z,101167.86
2022-09-02T16:29:01.951Z,101167.86
2022-09-02T16:31:32.353Z,101172.70
2022-09-02T16:34:15.204Z,101171.69
2022-09-02T16:36:48.127Z,101173.38
2022-09-02T16:39:16.474Z,101179.01
2022-09-02T16:41:47.090Z,101181.92
2022-09-02T16:44:17.515Z,101186.20
2022-09-02T16:46:46.765Z,101184.63
2022-09-02T16:49:19.446Z,101190.26
2022-09-02T16:51:48.695Z,101195.85
2022-09-02T16:54:21.125Z,101201.08
2022-09-02T16:56:50.552Z,101191.30
2022-09-02T16:59:20.239Z,101198.86
2022-09-02T17:01:48.072Z,101200.00
2022-09-02T17:04:15.875Z,101202.45
2022-09-02T17:06:44.257Z,101195.39
2022-09-02T17:09:12.062Z,101197.13
2022-09-02T17:11:42.228Z,101198.04
2022-09-02T17:14:12.863Z,101193.89
2022-09-02T17:16:46.138Z,101198.50
2022-09-02T17:19:22.572Z,101202.36
2022-09-02T17:21:54.612Z,101201.87
2022-09-02T17:24:24.860Z,101194.05
2022-09-02T17:26:56.786Z,101187.77
2022-09-02T17:32:13.963Z,101200.13
2022-09-02T17:34:41.961Z,101198.30
2022-09-02T17:37:09.708Z,101200.03
2022-09-02T17:39:37.652Z,101196.44
2022-09-02T17:42:06.784Z,101199.67
2022-09-02T17:44:37.672Z,101202.16
2022-09-02T17:47:12.553Z,101198.56
2022-09-02T17:49:43.275Z,101196.99
2022-09-02T17:52:13.801Z,101190.75
2022-09-02T17:54:42.734Z,101195.00
2022-09-02T17:57:21.661Z,101191.86
2022-09-02T18:00:12.478Z,101192.19
2022-09-02T18:02:55.610Z,101195.46
2022-09-02T18:05:29.508Z,101191.77
2022-09-02T18:08:12.745Z,101182.57
2022-09-02T18:10:58.830Z,101176.55
2022-09-02T18:13:41.153Z,101173.71
2022-09-02T18:16:51.629Z,101177.96
2022-09-02T18:19:29.481Z,101176.20
2022-09-02T18:22:15.634Z,101183.13
2022-09-02T18:25:00.083Z,101182.90
2022-09-02T18:27:34.097Z,101183.75
2022-09-02T18:30:04.703Z,101183.55
2022-09-02T18:33:00.269Z,101195.72
2022-09-02T18:35:33.930Z,101192.61
2022-09-02T18:38:13.773Z,101199.87
2022-09-02T18:41:12.131Z,101205.46
2022-09-02T18:43:54.650Z,101215.53
2022-09-02T18:46:25.152Z,101204.98
2022-09-02T18:48:57.502Z,101209.81
2022-09-02T18:51:40.141Z,101214.62
2022-09-02T18:54:20.058Z,101205.89
2022-09-02T18:56:57.802Z,101215.47
2022-09-02T19:00:02.318Z,101213.70
2022-09-02T19:02:39.782Z,101211.91
2022-09-02T19:05:11.555Z,101206.64
2022-09-02T19:07:57.954Z,101205.86
2022-09-02T19:10:25.677Z,101212.23
2022-09-02T19:12:54.434Z,101210.44
2022-09-02T19:15:22.615Z,101210.99
2022-09-02T19:17:50.669Z,101207.63
2022-09-02T19:20:19.430Z,101222.14
2022-09-02T19:22:52.657Z,101209.52
2022-09-02T19:25:26.466Z,101215.86
2022-09-02T19:27:56.772Z,101216.45
2022-09-02T19:30:25.662Z,101214.85
2022-09-02T19:32:58.263Z,101211.48
2022-09-02T19:35:30.396Z,101208.90
2022-09-02T19:37:58.106Z,101205.76
2022-09-02T19:40:31.896Z,101213.02
2022-09-02T19:43:05.983Z,101206.97
2022-09-02T19:45:38.574Z,101210.40
2022-09-02T19:48:10.853Z,101213.64
2022-09-02T19:50:42.159Z,101217.10
2022-09-02T19:53:28.960Z,101215.86
2022-09-02T19:56:01.033Z,101213.45
2022-09-02T19:58:28.990Z,101213.77
2022-09-02T20:00:58.050Z,101221.45
2022-09-02T20:03:26.182Z,101218.31
2022-09-02T20:05:53.955Z,101222.56
2022-09-02T20:08:23.367Z,101222.11
2022-09-02T20:11:00.176Z,101235.29
2022-09-02T20:13:29.628Z,101233.52
2022-09-02T20:15:58.116Z,101235.61
2022-09-02T20:18:27.967Z,101236.95
2022-09-02T20:20:58.937Z,101236.13
2022-09-02T20:23:29.246Z,101229.34
2022-09-02T20:26:05.859Z,101235.68
2022-09-02T20:28:58.744Z,101243.59
2022-09-02T20:31:52.077Z,101234.66
2022-09-02T20:35:07.431Z,101226.82
2022-09-02T20:37:53.033Z,101230.02
2022-09-02T20:40:23.742Z,101236.37
2022-09-02T20:43:18.074Z,101241.43
2022-09-02T20:46:05.964Z,101235.61
2022-09-02T20:49:00.421Z,101224.30
2022-09-02T20:51:43.397Z,101231.69
2022-09-02T20:54:48.751Z,101228.32
2022-09-02T20:57:48.353Z,101232.77
2022-09-02T21:00:20.651Z,101236.23
2022-09-02T21:02:58.952Z,101229.37
2022-09-02T21:05:35.286Z,101230.19
2022-09-02T21:08:07.078Z,101233.39
2022-09-02T21:10:39.975Z,101230.25
2022-09-02T21:13:18.363Z,101238.72
2022-09-02T21:15:50.543Z,101223.19
2022-09-02T21:18:45.521Z,101226.62
2022-09-02T21:21:37.702Z,101228.48
2022-09-02T21:24:15.314Z,101222.77
2022-09-02T21:26:56.768Z,101219.63
2022-09-02T21:29:29.093Z,101219.91
2022-09-02T21:32:05.254Z,101223.94
2022-09-02T21:35:00.925Z,101217.07
2022-09-02T21:37:33.142Z,101214.49
2022-09-02T21:40:08.974Z,101224.07
2022-09-02T21:42:57.955Z,101214.88
2022-09-02T21:46:06.589Z,101220.96
2022-09-02T21:48:58.407Z,101217.56
2022-09-02T21:51:35.064Z,101225.77
2022-09-02T21:54:28.985Z,101229.76
2022-09-02T21:57:30.381Z,101228.52
2022-09-02T22:00:07.383Z,101215.63
2022-09-02T22:02:59.229Z,101223.80
2022-09-02T22:05:42.766Z,101216.74
2022-09-02T22:08:12.408Z,101227.63
2022-09-02T22:10:46.433Z,101232.96
2022-09-02T22:13:14.502Z,101225.87
2022-09-02T22:16:14.355Z,101221.95
2022-09-02T22:18:53.360Z,101216.71
2022-09-02T22:21:34.414Z,101221.78
2022-09-02T22:24:03.938Z,101218.38
2022-09-02T22:26:40.020Z,101219.23
2022-09-02T22:29:37.648Z,101207.91
2022-09-02T22:32:09.928Z,101218.25
2022-09-02T22:35:14.796Z,101220.93
2022-09-02T22:38:03.968Z,101220.96
2022-09-02T22:40:35.381Z,101213.05
2022-09-02T22:43:08.278Z,101207.30
2022-09-02T22:46:05.022Z,101208.93
2022-09-02T22:48:58.636Z,101213.18
2022-09-02T22:52:09.730Z,101195.85
2022-09-02T22:54:37.725Z,101190.84
2022-09-02T22:57:34.421Z,101198.79
2022-09-02T23:00:10.498Z,101203.30
2022-09-02T23:03:02.658Z,101201.21
2022-09-02T23:05:50.464Z,101202.03
2022-09-02T23:08:22.963Z,101193.63
2022-09-02T23:11:09.313Z,101193.66
2022-09-02T23:13:43.908Z,101197.91
2022-09-02T23:16:36.266Z,101196.60
2022-09-02T23:19:19.422Z,101193.46
2022-09-02T23:22:13.193Z,101192.94
2022-09-02T23:24:46.087Z,101198.23
2022-09-02T23:27:38.297Z,101189.57
2022-09-02T23:30:06.438Z,101192.22
2022-09-02T23:33:03.715Z,101193.01
2022-09-02T23:35:54.773Z,101194.87
2022-09-02T23:38:37.291Z,101202.23
2022-09-02T23:41:10.216Z,101214.33
2022-09-02T23:43:40.584Z,101219.30
2022-09-02T23:46:34.550Z,101204.58
2022-09-02T23:49:28.767Z,101210.92
2022-09-02T23:52:20.684Z,101217.73
2022-09-02T23:54:54.103Z,101216.71
2022-09-02T23:57:44.194Z,101212.52
